sensor_id;sensor_type;location;lat;lon;timestamp;pressure;altitude;pressure_sealevel;temperature;humidity
40384;BME280;26097;42.366;23.818;2023-11-21T00:00:16;93867.72;;;0.54;100.00
40384;BME280;26097;42.366;23.818;2023-11-21T00:03:15;93874.53;;;0.55;100.00
40384;BME280;26097;42.366;23.818;2023-11-21T00:06:15;93875.13;;;0.62;100.00
40384;BME280;26097;42.366;23.818;2023-11-21T00:09:14;93868.41;;;0.59;100.00
40384;BME280;26097;42.366;23.818;2023-11-21T00:12:17;93873.28;;;0.65;100.00
40384;BME280;26097;42.366;23.818;2023-11-21T00:15:17;93877.25;;;0.73;100.00
40384;BME280;26097;42.366;23.818;2023-11-21T00:18:17;93875.56;;;0.71;100.00
40384;BME280;26097;42.366;23.818;2023-11-21T00:21:16;93877.19;;;0.74;100.00
40384;BME280;26097;42.366;23.818;2023-11-21T00:24:16;93880.06;;;0.66;100.00
40384;BME280;26097;42.366;23.818;2023-11-21T00:27:15;93869.69;;;0.47;100.00
40384;BME280;26097;42.366;23.818;2023-11-21T00:30:15;93868.75;;;0.50;100.00
40384;BME280;26097;42.366;23.818;2023-11-21T00:33:14;93874.47;;;0.56;100.00
40384;BME280;26097;42.366;23.818;2023-11-21T00:36:13;93874.16;;;0.44;100.00
40384;BME280;26097;42.366;23.818;2023-11-21T00:39:13;93870.81;;;0.41;100.00
40384;BME280;26097;42.366;23.818;2023-11-21T00:42:12;93871.63;;;0.42;100.00
40384;BME280;26097;42.366;23.818;2023-11-21T00:45:12;93874.00;;;0.47;100.00
40384;BME280;26097;42.366;23.818;2023-11-21T00:48:11;93872.47;;;0.42;100.00
40384;BME280;26097;42.366;23.818;2023-11-21T00:51:12;93869.78;;;0.46;100.00
40384;BME280;26097;42.366;23.818;2023-11-21T00:54:12;93865.94;;;0.56;100.00
40384;BME280;26097;42.366;23.818;2023-11-21T00:57:11;93862.41;;;0.59;100.00
40384;BME280;26097;42.366;23.818;2023-11-21T01:00:11;93850.94;;;0.47;100.00
40384;BME280;26097;42.366;23.818;2023-11-21T01:03:16;93858.28;;;0.34;100.00
40384;BME280;26097;42.366;23.818;2023-11-21T01:06:15;93867.94;;;0.27;100.00
40384;BME280;26097;42.366;23.818;2023-11-21T01:09:14;93869.75;;;0.25;100.00
40384;BME280;26097;42.366;23.818;2023-11-21T01:12:16;93869.19;;;0.17;100.00
40384;BME280;26097;42.366;23.818;2023-11-21T01:15:16;93871.06;;;0.13;100.00
40384;BME280;26097;42.366;23.818;2023-11-21T01:18:16;93864.38;;;0.31;100.00
40384;BME280;26097;42.366;23.818;2023-11-21T01:21:15;93866.44;;;0.44;100.00
40384;BME280;26097;42.366;23.818;2023-11-21T01:24:14;93871.03;;;0.35;100.00
40384;BME280;26097;42.366;23.818;2023-11-21T01:27:14;93867.47;;;0.39;100.00
40384;BME280;26097;42.366;23.818;2023-11-21T01:30:13;93861.97;;;0.49;100.00
40384;BME280;26097;42.366;23.818;2023-11-21T01:33:13;93857.22;;;0.39;100.00
40384;BME280;26097;42.366;23.818;2023-11-21T01:36:14;93852.19;;;0.36;100.00
40384;BME280;26097;42.366;23.818;2023-11-21T01:39:14;93840.53;;;0.29;100.00
40384;BME280;26097;42.366;23.818;2023-11-21T01:42:15;93831.63;;;0.16;100.00
40384;BME280;26097;42.366;23.818;2023-11-21T01:45:14;93839.44;;;0.12;100.00
40384;BME280;26097;42.366;23.818;2023-11-21T01:48:14;93844.56;;;0.12;100.00
40384;BME280;26097;42.366;23.818;2023-11-21T01:51:16;93842.03;;;0.12;100.00
40384;BME280;26097;42.366;23.818;2023-11-21T01:54:20;93843.56;;;0.17;100.00
40384;BME280;26097;42.366;23.818;2023-11-21T01:57:20;93838.69;;;0.10;100.00
40384;BME280;26097;42.366;23.818;2023-11-21T02:00:19;93836.13;;;0.10;100.00
40384;BME280;26097;42.366;23.818;2023-11-21T02:03:19;93829.19;;;0.12;100.00
40384;BME280;26097;42.366;23.818;2023-11-21T02:06:19;93826.25;;;0.01;100.00
40384;BME280;26097;42.366;23.818;2023-11-21T02:09:24;93827.47;;;-0.09;100.00
40384;BME280;26097;42.366;23.818;2023-11-21T02:12:23;93824.91;;;-0.09;100.00
40384;BME280;26097;42.366;23.818;2023-11-21T02:15:25;93835.00;;;-0.05;100.00
40384;BME280;26097;42.366;23.818;2023-11-21T02:18:28;93834.81;;;0.00;100.00
40384;BME280;26097;42.366;23.818;2023-11-21T02:21:28;93830.81;;;-0.07;100.00
40384;BME280;26097;42.366;23.818;2023-11-21T02:24:28;93820.81;;;-0.13;100.00
40384;BME280;26097;42.366;23.818;2023-11-21T02:27:27;93832.09;;;-0.18;100.00
40384;BME280;26097;42.366;23.818;2023-11-21T02:30:27;93828.63;;;-0.17;100.00
40384;BME280;26097;42.366;23.818;2023-11-21T02:33:27;93831.09;;;-0.15;100.00
40384;BME280;26097;42.366;23.818;2023-11-21T02:36:26;93826.09;;;-0.18;100.00
40384;BME280;26097;42.366;23.818;2023-11-21T02:39:26;93821.63;;;-0.13;100.00
40384;BME280;26097;42.366;23.818;2023-11-21T02:42:25;93829.44;;;-0.16;100.00
40384;BME280;26097;42.366;23.818;2023-11-21T02:45:25;93832.41;;;-0.27;100.00
40384;BME280;26097;42.366;23.818;2023-11-21T02:48:24;93826.00;;;-0.37;100.00
40384;BME280;26097;42.366;23.818;2023-11-21T02:51:24;93824.31;;;-0.38;100.00
40384;BME280;26097;42.366;23.818;2023-11-21T02:54:24;93821.44;;;-0.31;100.00
40384;BME280;26097;42.366;23.818;2023-11-21T02:57:23;93817.34;;;-0.12;100.00
40384;BME280;26097;42.366;23.818;2023-11-21T03:00:22;93813.81;;;-0.10;100.00
40384;BME280;26097;42.366;23.818;2023-11-21T03:03:23;93817.09;;;-0.06;100.00
40384;BME280;26097;42.366;23.818;2023-11-21T03:06:23;93829.41;;;-0.15;100.00
40384;BME280;26097;42.366;23.818;2023-11-21T03:09:23;93831.41;;;-0.23;100.00
40384;BME280;26097;42.366;23.818;2023-11-21T03:12:22;93830.88;;;-0.31;100.00
40384;BME280;26097;42.366;23.818;2023-11-21T03:15:21;93830.47;;;-0.20;100.00
40384;BME280;26097;42.366;23.818;2023-11-21T03:18:21;93837.78;;;-0.11;100.00
40384;BME280;26097;42.366;23.818;2023-11-21T03:21:24;93845.16;;;-0.03;100.00
40384;BME280;26097;42.366;23.818;2023-11-21T03:24:23;93846.84;;;-0.02;100.00
40384;BME280;26097;42.366;23.818;2023-11-21T03:27:23;93848.63;;;-0.04;100.00
40384;BME280;26097;42.366;23.818;2023-11-21T03:30:22;93838.38;;;-0.04;100.00
40384;BME280;26097;42.366;23.818;2023-11-21T03:33:22;93823.09;;;-0.06;100.00
40384;BME280;26097;42.366;23.818;2023-11-21T03:36:21;93807.28;;;0.05;100.00
40384;BME280;26097;42.366;23.818;2023-11-21T03:39:20;93816.47;;;0.11;100.00
40384;BME280;26097;42.366;23.818;2023-11-21T03:42:21;93801.13;;;0.09;100.00
40384;BME280;26097;42.366;23.818;2023-11-21T03:45:20;93802.69;;;0.13;100.00
40384;BME280;26097;42.366;23.818;2023-11-21T03:48:20;93805.88;;;0.19;100.00
40384;BME280;26097;42.366;23.818;2023-11-21T03:51:19;93812.75;;;0.18;100.00
40384;BME280;26097;42.366;23.818;2023-11-21T03:54:18;93823.06;;;0.17;100.00
40384;BME280;26097;42.366;23.818;2023-11-21T03:57:18;93832.41;;;0.18;100.00
40384;BME280;26097;42.366;23.818;2023-11-21T04:00:17;93838.25;;;0.21;100.00
40384;BME280;26097;42.366;23.818;2023-11-21T04:03:18;93834.97;;;0.18;100.00
40384;BME280;26097;42.366;23.818;2023-11-21T04:06:18;93829.41;;;0.28;100.00
40384;BME280;26097;42.366;23.818;2023-11-21T04:09:18;93829.78;;;0.41;100.00
40384;BME280;26097;42.366;23.818;2023-11-21T04:12:17;93812.47;;;0.47;100.00
40384;BME280;26097;42.366;23.818;2023-11-21T04:15:17;93814.41;;;0.41;100.00
40384;BME280;26097;42.366;23.818;2023-11-21T04:18:16;93803.88;;;0.48;100.00
40384;BME280;26097;42.366;23.818;2023-11-21T04:21:15;93800.53;;;0.46;100.00
40384;BME280;26097;42.366;23.818;2023-11-21T04:24:15;93802.56;;;0.37;100.00
40384;BME280;26097;42.366;23.818;2023-11-21T04:27:15;93800.91;;;0.36;100.00
40384;BME280;26097;42.366;23.818;2023-11-21T04:30:17;93804.97;;;0.42;100.00
40384;BME280;26097;42.366;23.818;2023-11-21T04:33:16;93806.13;;;0.35;100.00
40384;BME280;26097;42.366;23.818;2023-11-21T04:36:16;93799.38;;;0.32;100.00
40384;BME280;26097;42.366;23.818;2023-11-21T04:39:15;93804.38;;;0.35;100.00
40384;BME280;26097;42.366;23.818;2023-11-21T04:42:15;93812.97;;;0.34;100.00
40384;BME280;26097;42.366;23.818;2023-11-21T04:45:14;93813.47;;;0.22;100.00
40384;BME280;26097;42.366;23.818;2023-11-21T04:48:15;93818.81;;;0.16;100.00
40384;BME280;26097;42.366;23.818;2023-11-21T04:51:14;93813.34;;;0.25;100.00
40384;BME280;26097;42.366;23.818;2023-11-21T04:54:13;93802.97;;;0.28;100.00
40384;BME280;26097;42.366;23.818;2023-11-21T04:57:13;93807.97;;;0.31;100.00
40384;BME280;26097;42.366;23.818;2023-11-21T05:00:13;93809.50;;;0.35;100.00
40384;BME280;26097;42.366;23.818;2023-11-21T05:03:13;93813.72;;;0.36;100.00
40384;BME280;26097;42.366;23.818;2023-11-21T05:06:12;93815.81;;;0.26;100.00
40384;BME280;26097;42.366;23.818;2023-11-21T05:09:13;93805.53;;;0.28;100.00
40384;BME280;26097;42.366;23.818;2023-11-21T05:12:12;93804.00;;;0.24;100.00
40384;BME280;26097;42.366;23.818;2023-11-21T05:15:14;93802.19;;;0.26;100.00
40384;BME280;26097;42.366;23.818;2023-11-21T05:18:14;93802.97;;;0.28;100.00
40384;BME280;26097;42.366;23.818;2023-11-21T05:21:14;93806.69;;;0.21;100.00
40384;BME280;26097;42.366;23.818;2023-11-21T05:24:14;93807.56;;;0.20;100.00
40384;BME280;26097;42.366;23.818;2023-11-21T05:27:13;93802.38;;;0.21;100.00
40384;BME280;26097;42.366;23.818;2023-11-21T05:30:13;93801.16;;;0.30;100.00
40384;BME280;26097;42.366;23.818;2023-11-21T05:33:13;93811.69;;;0.24;100.00
40384;BME280;26097;42.366;23.818;2023-11-21T05:36:12;93816.25;;;0.16;100.00
40384;BME280;26097;42.366;23.818;2023-11-21T05:39:13;93811.69;;;0.24;100.00
40384;BME280;26097;42.366;23.818;2023-11-21T05:42:13;93806.03;;;0.36;100.00
40384;BME280;26097;42.366;23.818;2023-11-21T05:45:12;93801.38;;;0.46;100.00
40384;BME280;26097;42.366;23.818;2023-11-21T05:48:11;93797.97;;;0.66;100.00
40384;BME280;26097;42.366;23.818;2023-11-21T05:51:11;93804.00;;;0.86;100.00
40384;BME280;26097;42.366;23.818;2023-11-21T05:54:12;93808.88;;;0.92;100.00
40384;BME280;26097;42.366;23.818;2023-11-21T05:57:12;93805.16;;;0.99;100.00
40384;BME280;26097;42.366;23.818;2023-11-21T06:00:13;93806.53;;;1.07;100.00
40384;BME280;26097;42.366;23.818;2023-11-21T06:03:24;93811.81;;;1.04;100.00
40384;BME280;26097;42.366;23.818;2023-11-21T06:06:24;93821.66;;;1.13;100.00
40384;BME280;26097;42.366;23.818;2023-11-21T06:09:24;93821.53;;;1.16;100.00
40384;BME280;26097;42.366;23.818;2023-11-21T06:12:24;93827.75;;;1.31;100.00
40384;BME280;26097;42.366;23.818;2023-11-21T06:15:24;93832.41;;;1.42;100.00
40384;BME280;26097;42.366;23.818;2023-11-21T06:18:23;93826.31;;;1.64;100.00
40384;BME280;26097;42.366;23.818;2023-11-21T06:21:23;93832.56;;;1.77;100.00
40384;BME280;26097;42.366;23.818;2023-11-21T06:24:22;93829.00;;;1.99;100.00
40384;BME280;26097;42.366;23.818;2023-11-21T06:27:22;93821.31;;;2.17;100.00
40384;BME280;26097;42.366;23.818;2023-11-21T06:30:23;93817.56;;;2.41;100.00
40384;BME280;26097;42.366;23.818;2023-11-21T06:33:22;93822.25;;;2.68;100.00
40384;BME280;26097;42.366;23.818;2023-11-21T06:36:22;93825.75;;;2.85;100.00
40384;BME280;26097;42.366;23.818;2023-11-21T06:39:21;93819.53;;;2.89;100.00
40384;BME280;26097;42.366;23.818;2023-11-21T06:42:21;93825.56;;;2.88;100.00
40384;BME280;26097;42.366;23.818;2023-11-21T06:45:21;93824.44;;;2.94;100.00
40384;BME280;26097;42.366;23.818;2023-11-21T06:48:21;93835.69;;;3.09;100.00
40384;BME280;26097;42.366;23.818;2023-11-21T06:51:20;93826.28;;;3.25;100.00
40384;BME280;26097;42.366;23.818;2023-11-21T06:54:19;93831.22;;;3.46;100.00
40384;BME280;26097;42.366;23.818;2023-11-21T06:57:19;93834.34;;;3.69;100.00
40384;BME280;26097;42.366;23.818;2023-11-21T07:00:19;93829.63;;;3.93;100.00
40384;BME280;26097;42.366;23.818;2023-11-21T07:03:18;93828.38;;;4.17;100.00
40384;BME280;26097;42.366;23.818;2023-11-21T07:06:18;93831.41;;;4.39;100.00
40384;BME280;26097;42.366;23.818;2023-11-21T07:09:17;93833.72;;;4.60;100.00
40384;BME280;26097;42.366;23.818;2023-11-21T07:12:19;93834.31;;;4.80;100.00
40384;BME280;26097;42.366;23.818;2023-11-21T07:15:18;93830.69;;;4.98;100.00
40384;BME280;26097;42.366;23.818;2023-11-21T07:18:18;93845.28;;;5.14;100.00
40384;BME280;26097;42.366;23.818;2023-11-21T07:21:18;93836.44;;;5.33;100.00
40384;BME280;26097;42.366;23.818;2023-11-21T07:24:17;93831.09;;;5.50;100.00
40384;BME280;26097;42.366;23.818;2023-11-21T07:27:17;93832.75;;;5.66;100.00
40384;BME280;26097;42.366;23.818;2023-11-21T07:30:16;93830.88;;;5.82;100.00
40384;BME280;26097;42.366;23.818;2023-11-21T07:33:16;93822.19;;;5.98;100.00
40384;BME280;26097;42.366;23.818;2023-11-21T07:36:17;93815.25;;;6.13;100.00
40384;BME280;26097;42.366;23.818;2023-11-21T07:39:22;93816.78;;;6.30;100.00
40384;BME280;26097;42.366;23.818;2023-11-21T07:42:23;93829.38;;;6.49;100.00
40384;BME280;26097;42.366;23.818;2023-11-21T07:45:23;93830.13;;;6.64;100.00
40384;BME280;26097;42.366;23.818;2023-11-21T07:48:22;93826.66;;;6.78;100.00
40384;BME280;26097;42.366;23.818;2023-11-21T07:51:22;93817.03;;;6.93;100.00
40384;BME280;26097;42.366;23.818;2023-11-21T07:54:21;93816.03;;;7.09;100.00
40384;BME280;26097;42.366;23.818;2023-11-21T07:57:21;93813.53;;;7.20;100.00
40384;BME280;26097;42.366;23.818;2023-11-21T08:00:20;93812.72;;;7.33;100.00
40384;BME280;26097;42.366;23.818;2023-11-21T08:03:20;93809.81;;;7.50;100.00
40384;BME280;26097;42.366;23.818;2023-11-21T08:06:20;93814.53;;;7.82;100.00
40384;BME280;26097;42.366;23.818;2023-11-21T08:09:19;93806.47;;;8.11;100.00
40384;BME280;26097;42.366;23.818;2023-11-21T08:12:18;93813.50;;;8.22;100.00
40384;BME280;26097;42.366;23.818;2023-11-21T08:15:19;93807.22;;;8.38;100.00
40384;BME280;26097;42.366;23.818;2023-11-21T08:18:19;93805.31;;;8.53;100.00
40384;BME280;26097;42.366;23.818;2023-11-21T08:21:18;93808.16;;;8.61;100.00
40384;BME280;26097;42.366;23.818;2023-11-21T08:24:18;93799.00;;;8.68;100.00
40384;BME280;26097;42.366;23.818;2023-11-21T08:27:17;93809.41;;;8.80;100.00
40384;BME280;26097;42.366;23.818;2023-11-21T08:30:16;93810.88;;;8.95;100.00
40384;BME280;26097;42.366;23.818;2023-11-21T08:33:18;93817.97;;;8.93;100.00
40384;BME280;26097;42.366;23.818;2023-11-21T08:36:17;93817.91;;;9.06;100.00
40384;BME280;26097;42.366;23.818;2023-11-21T08:39:16;93822.13;;;8.96;100.00
40384;BME280;26097;42.366;23.818;2023-11-21T08:42:18;93819.41;;;8.97;100.00
40384;BME280;26097;42.366;23.818;2023-11-21T08:45:18;93824.88;;;9.06;100.00
40384;BME280;26097;42.366;23.818;2023-11-21T08:48:17;93820.81;;;9.02;100.00
40384;BME280;26097;42.366;23.818;2023-11-21T08:51:17;93813.53;;;9.07;100.00
40384;BME280;26097;42.366;23.818;2023-11-21T08:54:16;93804.78;;;9.08;100.00
40384;BME280;26097;42.366;23.818;2023-11-21T08:57:15;93803.72;;;9.10;100.00
40384;BME280;26097;42.366;23.818;2023-11-21T09:00:15;93799.13;;;9.14;100.00
40384;BME280;26097;42.366;23.818;2023-11-21T09:03:16;93796.75;;;9.22;100.00
40384;BME280;26097;42.366;23.818;2023-11-21T09:06:15;93794.91;;;9.24;100.00
40384;BME280;26097;42.366;23.818;2023-11-21T09:09:14;93790.84;;;9.20;100.00
40384;BME280;26097;42.366;23.818;2023-11-21T09:12:14;93784.03;;;9.31;100.00
40384;BME280;26097;42.366;23.818;2023-11-21T09:15:14;93778.81;;;9.31;100.00
40384;BME280;26097;42.366;23.818;2023-11-21T09:18:14;93782.25;;;9.42;100.00
40384;BME280;26097;42.366;23.818;2023-11-21T09:21:14;93782.03;;;9.46;100.00
40384;BME280;26097;42.366;23.818;2023-11-21T09:24:13;93771.97;;;9.52;100.00
40384;BME280;26097;42.366;23.818;2023-11-21T09:27:12;93777.75;;;9.67;100.00
40384;BME280;26097;42.366;23.818;2023-11-21T09:30:12;93773.03;;;9.72;100.00
40384;BME280;26097;42.366;23.818;2023-11-21T09:33:13;93767.34;;;9.79;100.00
40384;BME280;26097;42.366;23.818;2023-11-21T09:36:14;93761.28;;;10.01;100.00
40384;BME280;26097;42.366;23.818;2023-11-21T09:39:16;93768.31;;;10.33;100.00
40384;BME280;26097;42.366;23.818;2023-11-21T09:42:23;93762.00;;;10.47;100.00
40384;BME280;26097;42.366;23.818;2023-11-21T09:45:26;93765.72;;;10.45;100.00
40384;BME280;26097;42.366;23.818;2023-11-21T09:48:27;93756.53;;;10.50;100.00
40384;BME280;26097;42.366;23.818;2023-11-21T09:51:29;93757.53;;;10.70;100.00
40384;BME280;26097;42.366;23.818;2023-11-21T09:54:32;93737.97;;;10.97;100.00
40384;BME280;26097;42.366;23.818;2023-11-21T09:57:33;93719.97;;;11.16;100.00
40384;BME280;26097;42.366;23.818;2023-11-21T10:00:33;93701.13;;;11.43;100.00
40384;BME280;26097;42.366;23.818;2023-11-21T10:03:35;93685.50;;;11.53;100.00
40384;BME280;26097;42.366;23.818;2023-11-21T10:06:39;93686.09;;;11.66;100.00
40384;BME280;26097;42.366;23.818;2023-11-21T10:09:40;93680.50;;;11.91;100.00
40384;BME280;26097;42.366;23.818;2023-11-21T10:12:41;93673.25;;;11.94;100.00
40384;BME280;26097;42.366;23.818;2023-11-21T10:15:43;93671.03;;;11.90;97.56
40384;BME280;26097;42.366;23.818;2023-11-21T10:18:49;93660.59;;;11.99;94.44
40384;BME280;26097;42.366;23.818;2023-11-21T10:21:51;93640.69;;;12.08;94.43
40384;BME280;26097;42.366;23.818;2023-11-21T10:24:51;93616.78;;;12.03;93.04
40384;BME280;26097;42.366;23.818;2023-11-21T10:27:57;93609.59;;;11.76;88.79
40384;BME280;26097;42.366;23.818;2023-11-21T10:30:57;93599.53;;;11.81;89.40
40384;BME280;26097;42.366;23.818;2023-11-21T10:37:11;93608.84;;;11.44;90.65
40384;BME280;26097;42.366;23.818;2023-11-21T10:40:11;93621.91;;;11.54;92.25
40384;BME280;26097;42.366;23.818;2023-11-21T10:43:11;93616.16;;;11.70;91.49
40384;BME280;26097;42.366;23.818;2023-11-21T10:46:14;93602.03;;;11.82;90.23
40384;BME280;26097;42.366;23.818;2023-11-21T10:49:14;93611.34;;;11.75;90.06
40384;BME280;26097;42.366;23.818;2023-11-21T10:52:13;93605.84;;;11.78;90.12
40384;BME280;26097;42.366;23.818;2023-11-21T10:55:19;93609.03;;;11.82;89.40
40384;BME280;26097;42.366;23.818;2023-11-21T10:58:21;93594.47;;;11.79;90.75
40384;BME280;26097;42.366;23.818;2023-11-21T11:01:21;93589.25;;;11.79;91.59
40384;BME280;26097;42.366;23.818;2023-11-21T11:04:27;93589.66;;;11.84;90.41
40384;BME280;26097;42.366;23.818;2023-11-21T11:07:27;93586.50;;;11.91;89.90
40384;BME280;26097;42.366;23.818;2023-11-21T11:10:27;93591.75;;;12.10;86.78
40384;BME280;26097;42.366;23.818;2023-11-21T11:13:28;93579.06;;;12.35;84.69
40384;BME280;26097;42.366;23.818;2023-11-21T11:16:29;93581.63;;;12.55;86.36
40384;BME280;26097;42.366;23.818;2023-11-21T11:19:28;93590.19;;;12.37;86.89
40384;BME280;26097;42.366;23.818;2023-11-21T11:22:42;93591.16;;;12.46;83.95
40384;BME280;26097;42.366;23.818;2023-11-21T11:26:24;93598.88;;;12.38;82.38
40384;BME280;26097;42.366;23.818;2023-11-21T11:29:33;93606.84;;;12.36;86.01
40384;BME280;26097;42.366;23.818;2023-11-21T11:35:58;93628.59;;;12.07;84.77
40384;BME280;26097;42.366;23.818;2023-11-21T11:38:59;93628.72;;;12.06;87.34
40384;BME280;26097;42.366;23.818;2023-11-21T11:42:03;93630.13;;;12.20;85.62
40384;BME280;26097;42.366;23.818;2023-11-21T11:45:18;93642.22;;;12.21;82.84
40384;BME280;26097;42.366;23.818;2023-11-21T11:48:21;93613.06;;;12.16;86.17
40384;BME280;26097;42.366;23.818;2023-11-21T11:51:21;93594.50;;;12.09;86.36
40384;BME280;26097;42.366;23.818;2023-11-21T11:54:35;93588.06;;;12.03;85.33
40384;BME280;26097;42.366;23.818;2023-11-21T11:57:34;93568.81;;;12.04;86.46
40384;BME280;26097;42.366;23.818;2023-11-21T12:00:35;93568.50;;;12.27;85.65
40384;BME280;26097;42.366;23.818;2023-11-21T12:03:36;93559.97;;;12.35;82.87
40384;BME280;26097;42.366;23.818;2023-11-21T12:06:36;93552.72;;;12.66;81.09
40384;BME280;26097;42.366;23.818;2023-11-21T12:09:37;93520.69;;;12.64;81.40
40384;BME280;26097;42.366;23.818;2023-11-21T12:12:36;93533.22;;;12.51;81.76
40384;BME280;26097;42.366;23.818;2023-11-21T12:15:36;93537.09;;;12.47;81.25
40384;BME280;26097;42.366;23.818;2023-11-21T12:18:36;93555.25;;;12.58;79.97
40384;BME280;26097;42.366;23.818;2023-11-21T12:21:37;93549.06;;;12.49;81.62
40384;BME280;26097;42.366;23.818;2023-11-21T12:24:37;93549.94;;;12.10;82.98
40384;BME280;26097;42.366;23.818;2023-11-21T12:27:36;93546.66;;;12.08;84.05
40384;BME280;26097;42.366;23.818;2023-11-21T12:30:36;93550.91;;;11.99;84.35
40384;BME280;26097;42.366;23.818;2023-11-21T12:33:37;93545.66;;;11.90;85.18
40384;BME280;26097;42.366;23.818;2023-11-21T12:36:37;93550.63;;;11.93;83.80
40384;BME280;26097;42.366;23.818;2023-11-21T12:39:37;93563.69;;;11.93;84.49
40384;BME280;26097;42.366;23.818;2023-11-21T12:42:36;93565.59;;;11.71;84.10
40384;BME280;26097;42.366;23.818;2023-11-21T12:45:36;93560.53;;;11.60;84.98
40384;BME280;26097;42.366;23.818;2023-11-21T12:48:37;93561.59;;;11.47;86.21
40384;BME280;26097;42.366;23.818;2023-11-21T12:51:41;93565.53;;;11.32;86.99
40384;BME280;26097;42.366;23.818;2023-11-21T12:54:41;93567.13;;;11.13;88.20
40384;BME280;26097;42.366;23.818;2023-11-21T12:57:42;93550.53;;;11.14;87.15
40384;BME280;26097;42.366;23.818;2023-11-21T13:00:47;93554.63;;;11.07;86.98
40384;BME280;26097;42.366;23.818;2023-11-21T13:03:47;93550.81;;;11.11;88.63
40384;BME280;26097;42.366;23.818;2023-11-21T13:06:49;93551.06;;;11.08;88.52
40384;BME280;26097;42.366;23.818;2023-11-21T13:09:52;93551.06;;;11.08;88.39
40384;BME280;26097;42.366;23.818;2023-11-21T13:12:52;93548.72;;;11.05;88.64
40384;BME280;26097;42.366;23.818;2023-11-21T13:18:55;93551.44;;;10.93;90.24
40384;BME280;26097;42.366;23.818;2023-11-21T13:21:54;93552.94;;;10.86;89.94
40384;BME280;26097;42.366;23.818;2023-11-21T13:24:53;93560.41;;;10.69;91.75
40384;BME280;26097;42.366;23.818;2023-11-21T13:27:56;93570.66;;;10.61;91.11
40384;BME280;26097;42.366;23.818;2023-11-21T13:30:56;93572.25;;;10.52;91.24
40384;BME280;26097;42.366;23.818;2023-11-21T13:33:55;93566.47;;;10.49;90.80
40384;BME280;26097;42.366;23.818;2023-11-21T13:36:57;93559.34;;;10.51;91.34
40384;BME280;26097;42.366;23.818;2023-11-21T13:40:00;93554.41;;;10.48;92.40
40384;BME280;26097;42.366;23.818;2023-11-21T13:43:02;93566.03;;;10.43;93.40
40384;BME280;26097;42.366;23.818;2023-11-21T13:46:04;93561.53;;;10.46;92.75
40384;BME280;26097;42.366;23.818;2023-11-21T13:49:12;93558.22;;;10.43;90.98
40384;BME280;26097;42.366;23.818;2023-11-21T13:52:14;93552.06;;;10.45;91.67
40384;BME280;26097;42.366;23.818;2023-11-21T13:55:16;93545.22;;;10.32;93.05
40384;BME280;26097;42.366;23.818;2023-11-21T13:58:17;93549.06;;;10.28;94.12
40384;BME280;26097;42.366;23.818;2023-11-21T14:01:24;93556.66;;;10.20;93.76
40384;BME280;26097;42.366;23.818;2023-11-21T14:04:30;93551.28;;;10.11;93.32
40384;BME280;26097;42.366;23.818;2023-11-21T14:07:43;93555.34;;;10.04;92.69
40384;BME280;26097;42.366;23.818;2023-11-21T14:10:50;93546.00;;;10.02;93.20
40384;BME280;26097;42.366;23.818;2023-11-21T14:13:52;93538.94;;;9.92;94.79
40384;BME280;26097;42.366;23.818;2023-11-21T14:16:53;93543.25;;;9.82;98.08
40384;BME280;26097;42.366;23.818;2023-11-21T14:19:53;93543.69;;;9.66;100.00
40384;BME280;26097;42.366;23.818;2023-11-21T14:22:54;93549.88;;;9.53;100.00
40384;BME280;26097;42.366;23.818;2023-11-21T14:25:54;93547.53;;;9.39;100.00
40384;BME280;26097;42.366;23.818;2023-11-21T14:28:55;93533.41;;;9.20;100.00
40384;BME280;26097;42.366;23.818;2023-11-21T14:31:56;93542.44;;;9.05;100.00
40384;BME280;26097;42.366;23.818;2023-11-21T14:34:56;93546.25;;;8.89;100.00
40384;BME280;26097;42.366;23.818;2023-11-21T14:37:56;93546.25;;;8.66;100.00
40384;BME280;26097;42.366;23.818;2023-11-21T14:40:57;93539.41;;;8.54;100.00
40384;BME280;26097;42.366;23.818;2023-11-21T14:43:56;93537.94;;;8.38;100.00
40384;BME280;26097;42.366;23.818;2023-11-21T14:46:56;93537.69;;;8.19;100.00
40384;BME280;26097;42.366;23.818;2023-11-21T14:49:57;93539.28;;;7.97;100.00
40384;BME280;26097;42.366;23.818;2023-11-21T14:52:58;93535.94;;;7.83;100.00
40384;BME280;26097;42.366;23.818;2023-11-21T14:55:58;93531.19;;;7.66;100.00
40384;BME280;26097;42.366;23.818;2023-11-21T14:58:59;93527.72;;;7.54;100.00
40384;BME280;26097;42.366;23.818;2023-11-21T15:02:04;93530.50;;;7.39;100.00
40384;BME280;26097;42.366;23.818;2023-11-21T15:05:27;93521.84;;;7.27;100.00
40384;BME280;26097;42.366;23.818;2023-11-21T15:08:26;93544.19;;;7.17;100.00
40384;BME280;26097;42.366;23.818;2023-11-21T15:11:30;93546.81;;;7.04;100.00
40384;BME280;26097;42.366;23.818;2023-11-21T15:14:30;93556.28;;;6.92;100.00
40384;BME280;26097;42.366;23.818;2023-11-21T15:17:34;93552.66;;;6.82;100.00
40384;BME280;26097;42.366;23.818;2023-11-21T15:20:33;93551.38;;;6.63;100.00
40384;BME280;26097;42.366;23.818;2023-11-21T15:23:32;93558.13;;;6.53;100.00
40384;BME280;26097;42.366;23.818;2023-11-21T15:26:34;93559.38;;;6.34;100.00
40384;BME280;26097;42.366;23.818;2023-11-21T15:29:33;93553.78;;;6.27;100.00
40384;BME280;26097;42.366;23.818;2023-11-21T15:32:33;93546.63;;;6.18;100.00
40384;BME280;26097;42.366;23.818;2023-11-21T15:35:32;93547.56;;;6.04;100.00
40384;BME280;26097;42.366;23.818;2023-11-21T15:38:32;93546.88;;;5.88;100.00
40384;BME280;26097;42.366;23.818;2023-11-21T15:41:31;93547.72;;;5.75;100.00
40384;BME280;26097;42.366;23.818;2023-11-21T15:44:31;93540.44;;;5.54;100.00
40384;BME280;26097;42.366;23.818;2023-11-21T15:47:32;93533.63;;;5.53;100.00
40384;BME280;26097;42.366;23.818;2023-11-21T15:50:32;93529.88;;;5.57;100.00